OIBS METAR and TAF | Updated Today

OIBS METAR

Sirri Island Airport

Observation time: 5:51 hr. ago

OIBS 251500Z 27014KT 3000 DU NSC 30/23 Q1003

Need help? Read our tutorial on how to read METARs or read the parsed version below.

Sirri Island Airport (OIBS) METAR

  • Weather conditions on Wed, 25 May 2022 15:00:00 +0000 (5:51 hr. ago):
  • Present conditions: Widespread dust
  • Clouds: No significant clouds are observed
  • Visibility: 3000 meters
  • Wind: 270 degrees at 14 knots
  • Temperature: 30 celsius
  • Dew point: 23 celsius
  • Pressure: 1003 millibars
  • Remarks: None


Useful to know...